KWRB/WRB METAR and TAF weather

Enter ICAO airport designator
Station Type Date Time Source
KWRB METAR 2019/12/08 23:56 UTC NOAA

KWRB 082356Z 09005KT 10SM OVC034 14/05 A3020 RMK AO2A SLP229 T01440047 10177 20144 53002


Station Type Date Time Source
KWRB Decoded METAR 2019/12/08 23:56 UTC NOAA

Warner Robins Air Force Base, GA, United States (KWRB) 32-38N 083-36W
Dec 08, 2019 - 06:56 PM EST / 2019.12.08 2356 UTC
Wind: from the E (090 degrees) at 6 MPH (5 KT):0
Visibility: 10 mile(s):0
Sky conditions: overcast
Temperature: 57.9 F (14.4 C)
Dew Point: 40.5 F (4.7 C)
Relative Humidity: 52%
Pressure (altimeter): 30.2 in. Hg (1022 hPa)
Pressure tendency: 0.01 inches (0.2 hPa) higher than three hours ago
ob: KWRB 082356Z 09005KT 10SM OVC034 14/05 A3020 RMK AO2A SLP229 T01440047 10177 20144 53002
cycle: 0

Station Type Date Time Source
KWRB TAF 2019/12/08 21:03 UTC NOAA

TAF TAF KWRB 082100Z 0821/1003 08012KT 9999 BKN070 QNH3019INS
BECMG 0823/0824 VRB06KT 9999 BKN020 QNH3017INS
BECMG 0905/0906 VRB06KT 9999 BKN010 QNH3008INS
BECMG 0914/0915 16006KT 9999 BKN010 QNH3007INS
BECMG 0917/0918 19012G18KT 9999 -SHRA BKN015 QNH2999INS
BECMG 0920/0921 20009KT 9999 NSW FEW020 QNH2994INS TX19/0917Z TN10/0913Z

Example: see airport list